createdAt,value
2017-12-13T00:00:21.209Z,38.53
2017-12-13T00:01:30.739Z,38.35
2017-12-13T00:02:39.420Z,38.35
2017-12-13T00:03:48.361Z,38.43
2017-12-13T00:04:57.559Z,38.35
2017-12-13T00:06:06.768Z,38.54
2017-12-13T00:07:15.979Z,38.35
2017-12-13T00:08:25.470Z,38.54
2017-12-13T00:09:34.432Z,38.34
2017-12-13T00:10:43.641Z,38.26
2017-12-13T00:11:52.583Z,38.34
2017-12-13T00:13:02.059Z,38.34
2017-12-13T00:14:11.246Z,38.24
2017-12-13T00:15:20.442Z,38.35
2017-12-13T00:16:29.916Z,38.43
2017-12-13T00:17:38.859Z,38.54
2017-12-13T00:18:48.659Z,38.43
2017-12-13T00:19:57.598Z,38.43
2017-12-13T00:21:06.817Z,38.35
2017-12-13T00:22:15.768Z,38.24
2017-12-13T00:23:25.733Z,38.24
2017-12-13T00:24:34.664Z,38.24
2017-12-13T00:25:43.611Z,38.45
2017-12-13T00:26:52.305Z,38.14
2017-12-13T00:28:00.978Z,38.16
2017-12-13T00:29:10.462Z,38.43
2017-12-13T00:30:19.440Z,38.43
2017-12-13T00:31:28.115Z,38.45
2017-12-13T00:32:37.065Z,38.04
2017-12-13T00:33:46.525Z,38.14
2017-12-13T00:34:55.472Z,38.07
2017-12-13T00:36:04.406Z,38.26
2017-12-13T00:37:13.371Z,38.14
2017-12-13T00:38:22.587Z,38.04
2017-12-13T00:39:31.516Z,37.95
2017-12-13T00:40:40.736Z,38.04
2017-12-13T00:41:50.466Z,37.95
2017-12-13T00:42:59.414Z,38.14
2017-12-13T00:44:08.628Z,37.95
2017-12-13T00:45:18.085Z,38.45
2017-12-13T00:46:27.030Z,38.07
2017-12-13T00:47:36.015Z,37.97
2017-12-13T00:48:45.213Z,38.04
2017-12-13T00:49:54.164Z,38.24
2017-12-13T00:51:03.121Z,37.95
2017-12-13T00:52:12.049Z,38.26
2017-12-13T00:53:20.984Z,37.97
2017-12-13T00:54:29.945Z,38.35
2017-12-13T00:55:39.136Z,37.95
2017-12-13T00:56:48.335Z,38.24
2017-12-13T00:57:57.798Z,38.24
2017-12-13T00:59:06.995Z,38.14
2017-12-13T01:00:16.447Z,38.07
2017-12-13T01:01:25.646Z,38.34
2017-12-13T01:02:34.865Z,38.04
2017-12-13T01:03:43.809Z,38.24
2017-12-13T01:04:53.270Z,38.24
2017-12-13T01:06:02.725Z,37.95
2017-12-13T01:07:11.916Z,38.04
2017-12-13T01:08:21.380Z,38.34
2017-12-13T01:09:30.585Z,38.34
2017-12-13T01:10:40.309Z,38.04
2017-12-13T01:11:49.809Z,38.24
2017-12-13T01:12:59.009Z,38.24
2017-12-13T01:14:07.953Z,38.24
2017-12-13T01:15:16.890Z,38.34
2017-12-13T01:16:25.825Z,38.14
2017-12-13T01:17:34.773Z,38.24
2017-12-13T01:18:44.240Z,38.04
2017-12-13T01:19:53.176Z,38.24
2017-12-13T01:21:01.843Z,38.14
2017-12-13T01:22:11.050Z,38.34
2017-12-13T01:23:19.990Z,38.24
2017-12-13T01:24:29.189Z,37.95
2017-12-13T01:25:38.392Z,38.14
2017-12-13T01:26:47.341Z,38.04
2017-12-13T01:27:56.789Z,38.24
2017-12-13T01:29:05.729Z,37.95
2017-12-13T01:30:14.920Z,37.95
2017-12-13T01:31:24.392Z,38.04
2017-12-13T01:32:33.572Z,38.34
2017-12-13T01:33:42.507Z,37.95
2017-12-13T01:34:51.964Z,38.43
2017-12-13T01:36:00.890Z,37.95
2017-12-13T01:37:10.099Z,38.14
2017-12-13T01:38:19.313Z,37.95
2017-12-13T01:39:28.253Z,38.04
2017-12-13T01:40:37.200Z,38.04
2017-12-13T01:41:46.405Z,38.14
2017-12-13T01:42:55.086Z,38.14
2017-12-13T01:44:04.283Z,38.34
2017-12-13T01:45:13.475Z,38.04
2017-12-13T01:46:22.664Z,37.95
2017-12-13T01:47:31.340Z,38.24
2017-12-13T01:48:40.343Z,38.14
2017-12-13T01:49:49.221Z,37.85
2017-12-13T01:50:58.432Z,37.85
2017-12-13T01:52:07.365Z,38.14
2017-12-13T01:53:16.308Z,38.14
2017-12-13T01:54:25.510Z,38.14
2017-12-13T01:55:34.185Z,38.14
2017-12-13T01:56:42.860Z,38.14
2017-12-13T01:57:51.820Z,38.04
2017-12-13T01:59:01.024Z,38.14
2017-12-13T02:00:10.230Z,38.14
2017-12-13T02:01:19.439Z,38.14
2017-12-13T02:02:28.135Z,38.24
2017-12-13T02:03:37.613Z,38.14
2017-12-13T02:04:46.559Z,38.24
2017-12-13T02:05:55.768Z,38.24
2017-12-13T02:07:04.452Z,38.24
2017-12-13T02:08:13.377Z,38.14
2017-12-13T02:09:22.612Z,38.14
2017-12-13T02:10:32.065Z,38.14
2017-12-13T02:11:40.735Z,38.14
2017-12-13T02:12:49.396Z,38.14
2017-12-13T02:13:58.606Z,38.14
2017-12-13T02:15:07.553Z,37.95
2017-12-13T02:16:17.009Z,38.14
2017-12-13T02:17:25.968Z,38.04
2017-12-13T02:18:35.172Z,38.14
2017-12-13T02:19:44.640Z,38.14
2017-12-13T02:20:53.851Z,38.04
2017-12-13T02:22:02.792Z,38.14
2017-12-13T02:23:11.745Z,38.24
2017-12-13T02:24:21.212Z,38.24
2017-12-13T02:25:30.666Z,38.04
2017-12-13T02:26:40.132Z,38.24
2017-12-13T02:27:49.068Z,38.14
2017-12-13T02:28:58.025Z,38.04
2017-12-13T02:30:06.980Z,38.14
2017-12-13T02:31:16.191Z,38.14
2017-12-13T02:32:25.405Z,38.14
2017-12-13T02:33:34.368Z,38.14
2017-12-13T02:34:43.636Z,38.04
2017-12-13T02:35:53.365Z,38.04
2017-12-13T02:37:02.289Z,38.04
2017-12-13T02:38:11.506Z,38.14
2017-12-13T02:39:20.433Z,38.14
2017-12-13T02:40:29.111Z,38.04
2017-12-13T02:41:38.053Z,38.14
2017-12-13T02:42:47.528Z,38.14
2017-12-13T02:43:56.728Z,38.14
2017-12-13T02:45:06.255Z,38.24
2017-12-13T02:46:15.711Z,38.14
2017-12-13T02:47:24.912Z,38.34
2017-12-13T02:48:34.114Z,38.14
2017-12-13T02:49:43.326Z,38.14
2017-12-13T02:50:53.363Z,38.34
2017-12-13T02:52:02.306Z,38.14
2017-12-13T02:53:11.764Z,38.34
2017-12-13T02:54:21.005Z,38.34
2017-12-13T02:55:29.772Z,38.14
2017-12-13T02:56:38.719Z,38.34
2017-12-13T02:57:47.960Z,38.34
2017-12-13T02:58:57.427Z,38.24
2017-12-13T03:00:06.350Z,38.34
2017-12-13T03:01:15.543Z,38.14
2017-12-13T03:02:24.480Z,38.24
2017-12-13T03:03:33.694Z,38.43
2017-12-13T03:04:43.160Z,38.14
2017-12-13T03:05:52.086Z,38.53
2017-12-13T03:07:01.027Z,38.34
2017-12-13T03:08:09.735Z,38.34
2017-12-13T03:09:18.935Z,38.53
2017-12-13T03:10:27.890Z,38.14
2017-12-13T03:11:37.620Z,38.43
2017-12-13T03:12:46.565Z,38.24
2017-12-13T03:13:55.229Z,38.14
2017-12-13T03:15:04.696Z,38.34
2017-12-13T03:16:14.159Z,38.14
2017-12-13T03:17:23.148Z,38.14
2017-12-13T03:18:32.069Z,38.24
2017-12-13T03:19:41.325Z,38.24
2017-12-13T03:20:50.525Z,38.24
2017-12-13T03:21:59.469Z,38.14
2017-12-13T03:23:08.443Z,38.43
2017-12-13T03:24:17.367Z,38.24
2017-12-13T03:25:26.039Z,38.24
2017-12-13T03:26:35.561Z,38.24
2017-12-13T03:27:45.022Z,38.34
2017-12-13T03:28:53.756Z,38.24
2017-12-13T03:30:02.704Z,37.95
2017-12-13T03:31:12.437Z,37.95
2017-12-13T03:32:22.171Z,38.14
2017-12-13T03:33:31.367Z,37.95
2017-12-13T03:34:40.291Z,38.04
2017-12-13T03:35:49.918Z,38.04
2017-12-13T03:36:58.850Z,38.04
2017-12-13T03:38:07.520Z,38.04
2017-12-13T03:39:16.459Z,38.04
2017-12-13T03:40:25.660Z,37.85
2017-12-13T03:41:34.598Z,37.95
2017-12-13T03:42:44.058Z,37.93
2017-12-13T03:43:52.999Z,38.14
2017-12-13T03:45:01.672Z,37.95
2017-12-13T03:46:10.862Z,37.85
2017-12-13T03:47:19.541Z,37.95
2017-12-13T03:48:28.731Z,37.95
2017-12-13T03:49:38.193Z,37.93
2017-12-13T03:50:47.138Z,37.95
2017-12-13T03:51:55.809Z,37.85
2017-12-13T03:53:05.277Z,37.76
2017-12-13T03:54:14.742Z,38.02
2017-12-13T03:55:23.930Z,37.85
2017-12-13T03:56:33.152Z,37.95
2017-12-13T03:57:42.629Z,37.85
2017-12-13T03:58:51.836Z,38.14
2017-12-13T04:00:01.047Z,37.95
2017-12-13T04:01:10.788Z,37.84
2017-12-13T04:02:19.980Z,37.95
2017-12-13T04:03:28.649Z,37.76
2017-12-13T04:04:37.616Z,37.76
2017-12-13T04:05:46.556Z,37.66
2017-12-13T04:06:56.555Z,37.76
2017-12-13T04:08:05.486Z,37.85
2017-12-13T04:09:14.170Z,37.66
2017-12-13T04:10:23.384Z,37.74
2017-12-13T04:11:32.594Z,37.66
2017-12-13T04:12:41.535Z,37.66
2017-12-13T04:13:51.010Z,37.76
2017-12-13T04:14:59.979Z,37.84
2017-12-13T04:16:09.278Z,37.85
2017-12-13T04:17:19.032Z,37.85
2017-12-13T04:18:27.966Z,37.57
2017-12-13T04:19:36.895Z,37.66
2017-12-13T04:20:46.112Z,37.66
2017-12-13T04:21:54.788Z,37.66
2017-12-13T04:23:04.248Z,37.57
2017-12-13T04:24:13.193Z,37.57
2017-12-13T04:25:22.655Z,37.66
2017-12-13T04:26:32.378Z,37.55
2017-12-13T04:27:41.579Z,37.57
2017-12-13T04:28:50.803Z,37.47
2017-12-13T04:30:00.008Z,37.57
2017-12-13T04:31:09.522Z,37.66
2017-12-13T04:32:18.717Z,37.47
2017-12-13T04:33:28.037Z,37.45
2017-12-13T04:34:37.747Z,37.47
2017-12-13T04:35:46.482Z,37.55
2017-12-13T04:36:55.679Z,37.47
2017-12-13T04:38:04.871Z,37.57
2017-12-13T04:39:13.809Z,37.47
2017-12-13T04:40:22.744Z,37.66
2017-12-13T04:41:31.943Z,37.57
2017-12-13T04:42:40.627Z,37.47
2017-12-13T04:43:49.306Z,37.57
2017-12-13T04:44:58.522Z,37.47
2017-12-13T04:46:07.999Z,37.66
2017-12-13T04:47:16.943Z,37.66
2017-12-13T04:48:25.883Z,37.57
2017-12-13T04:49:35.095Z,37.45
2017-12-13T04:50:43.773Z,37.57
2017-12-13T04:51:52.700Z,37.66
2017-12-13T04:53:01.903Z,37.55
2017-12-13T04:54:10.594Z,37.76
2017-12-13T04:55:19.805Z,37.74
2017-12-13T04:56:28.751Z,37.37
2017-12-13T04:57:37.687Z,37.57
2017-12-13T04:58:46.915Z,37.66
2017-12-13T04:59:56.139Z,37.55
2017-12-13T05:01:05.618Z,37.55
2017-12-13T05:02:14.617Z,37.47
2017-12-13T05:03:23.813Z,37.57
2017-12-13T05:04:32.485Z,37.45
2017-12-13T05:05:41.157Z,37.57
2017-12-13T05:06:50.103Z,37.45
2017-12-13T05:07:59.296Z,37.57
2017-12-13T05:09:08.503Z,37.66
2017-12-13T05:10:17.458Z,37.66
2017-12-13T05:11:26.670Z,37.64
2017-12-13T05:12:35.636Z,37.64
2017-12-13T05:13:45.109Z,37.64
2017-12-13T05:14:53.775Z,37.45
2017-12-13T05:16:02.710Z,37.64
2017-12-13T05:17:11.912Z,37.47
2017-12-13T05:18:20.850Z,37.45
2017-12-13T05:19:29.826Z,37.66
2017-12-13T05:20:38.791Z,37.74
2017-12-13T05:21:47.455Z,37.64
2017-12-13T05:22:56.654Z,37.66
2017-12-13T05:24:05.582Z,37.64
2017-12-13T05:25:14.518Z,37.64
2017-12-13T05:26:24.242Z,37.74
2017-12-13T05:27:32.974Z,37.64
2017-12-13T05:28:41.658Z,37.84
2017-12-13T05:29:50.596Z,37.84
2017-12-13T05:30:59.536Z,37.64
2017-12-13T05:32:08.731Z,37.64
2017-12-13T05:33:17.421Z,37.66
2017-12-13T05:34:26.354Z,37.74
2017-12-13T05:35:35.343Z,37.74
2017-12-13T05:36:44.330Z,37.64
2017-12-13T05:37:53.789Z,37.64
2017-12-13T05:39:02.738Z,37.84
2017-12-13T05:40:11.942Z,37.55
2017-12-13T05:41:21.151Z,37.64
2017-12-13T05:42:30.615Z,37.64
2017-12-13T05:43:39.585Z,37.55
2017-12-13T05:44:48.810Z,37.45
2017-12-13T05:45:57.770Z,37.45
2017-12-13T05:47:06.988Z,37.55
2017-12-13T05:48:15.942Z,37.74
2017-12-13T05:49:24.977Z,37.45
2017-12-13T05:50:33.933Z,37.55
2017-12-13T05:51:43.130Z,37.57
2017-12-13T05:52:52.079Z,37.66
2017-12-13T05:54:01.311Z,37.76
2017-12-13T05:55:10.268Z,37.47
2017-12-13T05:56:18.965Z,37.47
2017-12-13T05:57:28.694Z,37.27
2017-12-13T05:58:37.629Z,37.18
2017-12-13T05:59:46.308Z,37.18
2017-12-13T06:00:55.276Z,36.99
2017-12-13T06:02:04.228Z,36.9
2017-12-13T06:03:13.170Z,36.82
2017-12-13T06:04:22.374Z,36.82
2017-12-13T06:05:31.317Z,36.82
2017-12-13T06:06:40.298Z,36.53
2017-12-13T06:07:49.506Z,36.43
2017-12-13T06:08:58.447Z,36.43
2017-12-13T06:10:07.385Z,36.33
2017-12-13T06:11:16.319Z,36.24
2017-12-13T06:12:26.051Z,36.16
2017-12-13T06:13:35.510Z,35.97
2017-12-13T06:14:44.701Z,35.97
2017-12-13T06:15:53.908Z,35.87
2017-12-13T06:17:03.107Z,35.68
2017-12-13T06:18:12.318Z,35.77
2017-12-13T06:19:21.262Z,35.58
2017-12-13T06:20:30.483Z,35.49
2017-12-13T06:21:39.417Z,35.3
2017-12-13T06:22:48.885Z,35.6
2017-12-13T06:23:58.092Z,35.22
2017-12-13T06:25:07.038Z,35.31
2017-12-13T06:26:16.247Z,35.22
2017-12-13T06:27:25.190Z,35.22
2017-12-13T06:28:33.887Z,35.22
2017-12-13T06:29:42.830Z,35.12
2017-12-13T06:30:52.332Z,35.12
2017-12-13T06:32:01.527Z,35.12
2017-12-13T06:33:10.727Z,34.92
2017-12-13T06:34:19.402Z,35.02
2017-12-13T06:35:28.082Z,34.92
2017-12-13T06:36:37.039Z,34.94
2017-12-13T06:37:46.239Z,35.14
2017-12-13T06:38:54.920Z,35.14
2017-12-13T06:40:03.851Z,35.04
2017-12-13T06:41:12.834Z,35.04
2017-12-13T06:42:21.508Z,35.14
2017-12-13T06:43:30.188Z,34.66
2017-12-13T06:44:39.164Z,34.66
2017-12-13T06:45:48.101Z,34.56
2017-12-13T06:46:57.045Z,34.56
2017-12-13T06:48:06.510Z,34.46
2017-12-13T06:49:15.186Z,34.46
2017-12-13T06:50:24.392Z,34.46
2017-12-13T06:51:33.066Z,34.27
2017-12-13T06:52:42.262Z,34.46
2017-12-13T06:53:51.015Z,34.38
2017-12-13T06:55:00.218Z,35.16
2017-12-13T06:56:09.147Z,34.38
2017-12-13T06:57:18.096Z,34.86
2017-12-13T06:58:27.303Z,34.19
2017-12-13T06:59:36.001Z,34.67
2017-12-13T07:00:44.682Z,34.58
2017-12-13T07:01:53.889Z,34.67
2017-12-13T07:03:02.849Z,34.58
2017-12-13T07:04:12.048Z,34.67
2017-12-13T07:05:21.245Z,34.67
2017-12-13T07:06:30.713Z,34.58
2017-12-13T07:07:39.666Z,34.58
2017-12-13T07:08:48.345Z,34.58
2017-12-13T07:09:57.291Z,34.58
2017-12-13T07:11:06.489Z,34.58
2017-12-13T07:12:15.434Z,34.58
2017-12-13T07:13:24.108Z,34.58
2017-12-13T07:14:32.781Z,34.4
2017-12-13T07:15:41.717Z,34.4
2017-12-13T07:16:50.654Z,34.29
2017-12-13T07:17:59.873Z,34.5
2017-12-13T07:19:09.071Z,34.5
2017-12-13T07:20:17.996Z,34.4
2017-12-13T07:21:27.209Z,34.4
2017-12-13T07:22:36.662Z,34.4
2017-12-13T07:23:45.610Z,34.3
2017-12-13T07:24:54.303Z,34.3
2017-12-13T07:26:03.517Z,34.4
2017-12-13T07:27:12.721Z,34.4
2017-12-13T07:28:21.667Z,34.4
2017-12-13T07:29:30.607Z,34.4
2017-12-13T07:30:39.619Z,34.5
2017-12-13T07:31:48.574Z,34.3
2017-12-13T07:32:57.788Z,34.5
2017-12-13T07:34:07.007Z,34.5
2017-12-13T07:35:16.214Z,34.5
2017-12-13T07:36:25.161Z,34.4
2017-12-13T07:37:34.379Z,34.3
2017-12-13T07:38:43.601Z,34.4
2017-12-13T07:39:52.284Z,34.3
2017-12-13T07:41:01.791Z,34.69
2017-12-13T07:42:10.512Z,34.21
2017-12-13T07:43:19.459Z,34.11
2017-12-13T07:44:28.762Z,34.5
2017-12-13T07:45:37.713Z,34.21
2017-12-13T07:46:46.405Z,34.69
2017-12-13T07:47:56.143Z,34.4
2017-12-13T07:49:04.829Z,34.4
2017-12-13T07:50:14.295Z,34.3
2017-12-13T07:51:23.505Z,34.59
2017-12-13T07:52:32.204Z,34.59
2017-12-13T07:53:41.425Z,34.59
2017-12-13T07:54:50.511Z,34.59
2017-12-13T07:55:59.718Z,34.21
2017-12-13T07:57:08.925Z,34.3
2017-12-13T07:58:17.865Z,34.69
2017-12-13T07:59:26.544Z,34.4
2017-12-13T08:00:36.017Z,34.5
2017-12-13T08:01:44.814Z,34.5
2017-12-13T08:02:54.029Z,35.08
2017-12-13T08:04:03.517Z,34.3
2017-12-13T08:05:12.229Z,34.5
2017-12-13T08:06:21.166Z,34.88
2017-12-13T08:07:30.373Z,34.69
2017-12-13T08:08:39.326Z,34.69
2017-12-13T08:09:48.002Z,34.78
2017-12-13T08:10:57.204Z,35.17
2017-12-13T08:12:06.155Z,35.08
2017-12-13T08:13:15.109Z,35.08
2017-12-13T08:14:24.093Z,35.17
2017-12-13T08:15:33.338Z,35.08
2017-12-13T08:16:42.365Z,34.98
2017-12-13T08:17:51.600Z,35.08
2017-12-13T08:19:00.332Z,35.17
2017-12-13T08:20:09.585Z,35.17
2017-12-13T08:21:19.133Z,35.27
2017-12-13T08:22:28.902Z,35.27
2017-12-13T08:23:37.612Z,35.17
2017-12-13T08:24:47.121Z,35.08
2017-12-13T08:25:55.849Z,35.17
2017-12-13T08:27:04.879Z,35.36
2017-12-13T08:28:14.826Z,35.54
2017-12-13T08:29:24.064Z,35.35
2017-12-13T08:30:33.355Z,35.54
2017-12-13T08:31:42.329Z,35.44
2017-12-13T08:32:51.554Z,35.44
2017-12-13T08:34:00.529Z,35.73
2017-12-13T08:35:09.754Z,35.73
2017-12-13T08:36:18.717Z,35.83
2017-12-13T08:37:27.936Z,35.73
2017-12-13T08:38:37.489Z,35.93
2017-12-13T08:39:46.442Z,36.02
2017-12-13T08:40:55.650Z,36.02
2017-12-13T08:42:04.870Z,36.21
2017-12-13T08:43:14.378Z,36.11
2017-12-13T08:44:23.919Z,35.91
2017-12-13T08:45:32.862Z,36.39
2017-12-13T08:46:42.085Z,36.39
2017-12-13T08:47:50.778Z,36.39
2017-12-13T08:48:59.736Z,36.39
2017-12-13T08:50:08.973Z,36.49
2017-12-13T08:51:18.199Z,36.49
2017-12-13T08:52:27.173Z,36.58
2017-12-13T08:53:35.890Z,36.58
2017-12-13T08:54:45.117Z,36.58
2017-12-13T08:55:54.336Z,36.68
2017-12-13T08:57:03.820Z,36.87
2017-12-13T08:58:12.530Z,36.77
2017-12-13T08:59:21.231Z,36.49
2017-12-13T09:00:30.706Z,36.68
2017-12-13T09:01:40.174Z,36.68
2017-12-13T09:02:49.647Z,36.97
2017-12-13T09:03:58.606Z,36.87
2017-12-13T09:05:07.827Z,36.87
2017-12-13T09:06:17.559Z,36.97
2017-12-13T09:07:27.022Z,37.04
2017-12-13T09:08:36.353Z,36.97
2017-12-13T09:09:46.105Z,36.95
2017-12-13T09:10:55.128Z,37.04
2017-12-13T09:12:04.632Z,37.04
2017-12-13T09:13:14.126Z,36.95
2017-12-13T09:14:23.337Z,37.04
2017-12-13T09:15:32.534Z,37.04
2017-12-13T09:16:41.746Z,37.04
2017-12-13T09:17:50.699Z,37.14
2017-12-13T09:18:59.914Z,37.24
2017-12-13T09:20:09.394Z,37.04
2017-12-13T09:21:18.631Z,36.66
2017-12-13T09:22:27.580Z,36.85
2017-12-13T09:23:36.802Z,36.76
2017-12-13T09:24:45.769Z,36.76
2017-12-13T09:25:54.469Z,36.85
2017-12-13T09:27:03.960Z,36.95
2017-12-13T09:28:13.450Z,36.95
2017-12-13T09:29:22.412Z,37.14
2017-12-13T09:30:31.630Z,37.14
2017-12-13T09:31:40.345Z,37.14
2017-12-13T09:32:49.567Z,37.14
2017-12-13T09:33:58.528Z,37.14
2017-12-13T09:35:07.764Z,37.24
2017-12-13T09:36:16.989Z,37.14
2017-12-13T09:37:26.469Z,37.24
2017-12-13T09:38:36.203Z,37.24
2017-12-13T09:39:45.161Z,37.24
2017-12-13T09:40:54.361Z,37.14
2017-12-13T09:42:04.100Z,37.14
2017-12-13T09:43:13.327Z,37.24
2017-12-13T09:44:22.541Z,37.14
2017-12-13T09:45:32.330Z,37.24
2017-12-13T09:46:41.276Z,37.14
2017-12-13T09:47:49.982Z,37.12
2017-12-13T09:48:58.940Z,37.14
2017-12-13T09:50:08.161Z,37.14
2017-12-13T09:51:16.915Z,37.34
2017-12-13T09:52:26.458Z,37.34
2017-12-13T09:53:35.681Z,37.24
2017-12-13T09:54:44.690Z,37.43
2017-12-13T09:55:53.752Z,37.32
2017-12-13T09:57:02.970Z,37.41
2017-12-13T09:58:12.455Z,37.41
2017-12-13T09:59:21.472Z,37.41
2017-12-13T10:00:30.726Z,37.41
2017-12-13T10:01:39.672Z,37.41
2017-12-13T10:02:49.170Z,37.22
2017-12-13T10:03:57.877Z,37.22
2017-12-13T10:05:06.846Z,37.22
2017-12-13T10:06:16.872Z,37.32
2017-12-13T10:07:26.096Z,37.41
2017-12-13T10:08:35.374Z,37.32
2017-12-13T10:09:44.845Z,37.32
2017-12-13T10:10:53.540Z,37.22
2017-12-13T10:12:02.773Z,37.22
2017-12-13T10:13:11.733Z,37.32
2017-12-13T10:14:21.473Z,37.32
2017-12-13T10:15:30.690Z,37.22
2017-12-13T10:16:39.914Z,37.32
2017-12-13T10:17:48.908Z,37.32
2017-12-13T10:18:58.414Z,37.32
2017-12-13T10:20:07.654Z,37.32
2017-12-13T10:21:16.873Z,37.22
2017-12-13T10:22:26.117Z,37.12
2017-12-13T10:23:35.593Z,37.22
2017-12-13T10:24:45.359Z,37.02
2017-12-13T10:25:54.316Z,37.22
2017-12-13T10:27:03.255Z,37.22
2017-12-13T10:28:12.734Z,37.22
2017-12-13T10:29:21.688Z,37.12
2017-12-13T10:30:30.403Z,37.12
2017-12-13T10:31:39.376Z,37.22
2017-12-13T10:32:48.335Z,37.32
2017-12-13T10:33:57.313Z,37.12
2017-12-13T10:35:06.075Z,37.22
2017-12-13T10:36:15.850Z,37.22
2017-12-13T10:37:25.081Z,37.02
2017-12-13T10:38:34.301Z,37.02
2017-12-13T10:39:44.061Z,37.22
2017-12-13T10:40:52.761Z,37.02
2017-12-13T10:42:01.988Z,37.12
2017-12-13T10:43:10.964Z,37.12
2017-12-13T10:44:19.916Z,37.12
2017-12-13T10:45:29.387Z,37.12
2017-12-13T10:46:38.585Z,37.22
2017-12-13T10:47:47.818Z,37.22
2017-12-13T10:48:56.776Z,37.22
2017-12-13T10:50:05.989Z,37.12
2017-12-13T10:51:15.732Z,37.22
2017-12-13T10:52:24.956Z,37.12
2017-12-13T10:53:33.909Z,37.12
2017-12-13T10:54:43.129Z,37.12
2017-12-13T10:55:52.868Z,37.02
2017-12-13T10:57:02.076Z,37.12
2017-12-13T10:58:11.304Z,36.93
2017-12-13T10:59:20.273Z,37.12
2017-12-13T11:00:29.768Z,37.12
2017-12-13T11:01:38.998Z,37.12
2017-12-13T11:02:47.684Z,37.22
2017-12-13T11:03:57.199Z,36.93
2017-12-13T11:05:06.668Z,37.02
2017-12-13T11:06:15.894Z,37.02
2017-12-13T11:07:25.126Z,37.22
2017-12-13T11:08:34.434Z,37.02
2017-12-13T11:09:43.667Z,37.02
2017-12-13T11:10:53.434Z,37.12
2017-12-13T11:12:02.389Z,37.02
2017-12-13T11:13:11.654Z,37.12
2017-12-13T11:14:20.407Z,36.83
2017-12-13T11:15:29.878Z,37.02
2017-12-13T11:16:38.830Z,36.83
2017-12-13T11:17:47.524Z,36.93
2017-12-13T11:18:56.226Z,37.02
2017-12-13T11:20:05.170Z,37.02
2017-12-13T11:21:13.859Z,36.93
2017-12-13T11:22:23.336Z,37.02
2017-12-13T11:23:32.835Z,36.83
2017-12-13T11:24:41.800Z,36.83
2017-12-13T11:25:50.752Z,36.83
2017-12-13T11:27:00.520Z,36.74
2017-12-13T11:28:09.464Z,37.12
2017-12-13T11:29:18.687Z,36.83
2017-12-13T11:30:27.913Z,36.74
2017-12-13T11:31:36.869Z,36.74
2017-12-13T11:32:45.565Z,36.83
2017-12-13T11:33:55.304Z,36.93
2017-12-13T11:35:04.524Z,36.83
2017-12-13T11:36:13.483Z,36.74
2017-12-13T11:37:22.453Z,36.83
2017-12-13T11:38:31.660Z,36.93
2017-12-13T11:39:40.628Z,36.83
2017-12-13T11:40:49.850Z,36.74
2017-12-13T11:41:59.094Z,36.83
2017-12-13T11:43:08.036Z,36.74
2017-12-13T11:44:16.722Z,36.74
2017-12-13T11:45:25.923Z,36.74
2017-12-13T11:46:35.656Z,36.74
2017-12-13T11:47:44.614Z,36.93
2017-12-13T11:48:54.367Z,36.74
2017-12-13T11:50:03.846Z,36.74
2017-12-13T11:51:13.336Z,36.93
2017-12-13T11:52:22.863Z,36.74
2017-12-13T11:53:31.675Z,36.74
2017-12-13T11:54:40.911Z,37.02
2017-12-13T11:55:50.138Z,37.02
2017-12-13T11:56:59.884Z,37.12
2017-12-13T11:58:09.077Z,36.83
2017-12-13T11:59:19.116Z,36.93
2017-12-13T12:00:28.051Z,36.93
2017-12-13T12:01:37.261Z,36.93
2017-12-13T12:02:46.480Z,37.02
2017-12-13T12:03:55.432Z,37.02
2017-12-13T12:05:04.896Z,36.93
2017-12-13T12:06:13.871Z,36.93
2017-12-13T12:07:22.555Z,36.93
2017-12-13T12:08:32.039Z,37.02
2017-12-13T12:09:41.282Z,37.02
2017-12-13T12:10:50.311Z,37.22
2017-12-13T12:11:59.005Z,37.02
2017-12-13T12:13:08.237Z,37.02
2017-12-13T12:14:17.715Z,37.02
2017-12-13T12:15:26.932Z,36.93
2017-12-13T12:16:36.491Z,37.02
2017-12-13T12:17:45.461Z,37.12
2017-12-13T12:18:54.662Z,37.02
2017-12-13T12:20:04.169Z,37.12
2017-12-13T12:21:13.428Z,37.22
2017-12-13T12:22:22.673Z,37.12
2017-12-13T12:23:31.385Z,36.93
2017-12-13T12:24:40.414Z,37.22
2017-12-13T12:25:49.373Z,37.22
2017-12-13T12:26:58.108Z,37.02
2017-12-13T12:28:06.793Z,37.12
2017-12-13T12:29:15.749Z,37.12
2017-12-13T12:30:24.765Z,37.22
2017-12-13T12:31:34.239Z,37.02
2017-12-13T12:32:43.755Z,37.02
2017-12-13T12:33:52.764Z,37.02
2017-12-13T12:35:02.247Z,37.12
2017-12-13T12:36:11.455Z,36.93
2017-12-13T12:37:20.683Z,37.02
2017-12-13T12:38:29.918Z,36.93
2017-12-13T12:39:38.883Z,37.12
2017-12-13T12:40:47.572Z,37.02
2017-12-13T12:41:57.041Z,37.02
2017-12-13T12:43:05.994Z,37.22
2017-12-13T12:44:15.748Z,37.22
2017-12-13T12:45:24.948Z,37.02
2017-12-13T12:46:33.900Z,37.02
2017-12-13T12:47:43.380Z,37.22
2017-12-13T12:48:52.591Z,37.02
2017-12-13T12:50:01.578Z,37.12
2017-12-13T12:51:10.810Z,37.02
2017-12-13T12:52:19.769Z,37.12
2017-12-13T12:53:28.750Z,36.93
2017-12-13T12:54:37.957Z,37.02
2017-12-13T12:55:46.928Z,37.12
2017-12-13T12:56:55.895Z,37.22
2017-12-13T12:58:05.191Z,37.12
2017-12-13T12:59:14.675Z,37.02
2017-12-13T13:00:23.901Z,37.02
2017-12-13T13:01:33.381Z,37.22
2017-12-13T13:02:42.883Z,37.22
2017-12-13T13:03:52.393Z,37.02
2017-12-13T13:05:01.342Z,37.02
2017-12-13T13:06:11.075Z,37.22
2017-12-13T13:07:20.010Z,37.22
2017-12-13T13:08:29.213Z,37.12
2017-12-13T13:09:38.702Z,37.02
2017-12-13T13:10:47.912Z,37.02
2017-12-13T13:11:56.614Z,37.02
2017-12-13T13:13:05.904Z,37.02
2017-12-13T13:14:15.068Z,37.22
2017-12-13T13:15:23.761Z,37.12
2017-12-13T13:16:32.710Z,37.02
2017-12-13T13:17:41.415Z,37.02
2017-12-13T13:18:50.638Z,37.02
2017-12-13T13:20:00.104Z,37.02
2017-12-13T13:21:09.093Z,37.02
2017-12-13T13:22:17.785Z,37.02
2017-12-13T13:23:26.788Z,37.1
2017-12-13T13:24:36.266Z,37.02
2017-12-13T13:25:45.469Z,37.12
2017-12-13T13:26:54.440Z,37.12
2017-12-13T13:28:03.654Z,36.74
2017-12-13T13:29:13.139Z,36.74
2017-12-13T13:30:22.132Z,37.02
2017-12-13T13:31:31.601Z,37.12
2017-12-13T13:32:40.564Z,37.12
2017-12-13T13:33:50.051Z,37.12
2017-12-13T13:34:58.747Z,37.12
2017-12-13T13:36:08.216Z,37.12
2017-12-13T13:37:17.169Z,37.12
2017-12-13T13:38:25.867Z,37.22
2017-12-13T13:39:34.829Z,37.02
2017-12-13T13:40:44.305Z,37.22
2017-12-13T13:41:53.269Z,36.74
2017-12-13T13:43:01.958Z,37.02
2017-12-13T13:44:11.178Z,37.12
2017-12-13T13:45:20.169Z,37.12
2017-12-13T13:46:29.123Z,37.02
2017-12-13T13:47:38.374Z,37.02
2017-12-13T13:48:47.863Z,37.12
2017-12-13T13:49:56.819Z,37.12
2017-12-13T13:51:06.125Z,36.93
2017-12-13T13:52:15.093Z,36.83
2017-12-13T13:53:24.838Z,37.12
2017-12-13T13:54:35.532Z,37.01
2017-12-13T13:55:44.476Z,37.12
2017-12-13T13:56:53.444Z,37.02
2017-12-13T13:58:02.402Z,36.93
2017-12-13T13:59:11.355Z,36.72
2017-12-13T14:00:20.586Z,36.72
2017-12-13T14:01:29.811Z,37.2
2017-12-13T14:02:39.625Z,37.02
2017-12-13T14:03:49.118Z,37.01
2017-12-13T14:04:58.605Z,37.01
2017-12-13T14:06:08.084Z,37.02
2017-12-13T14:07:17.305Z,36.72
2017-12-13T14:08:26.534Z,37.01
2017-12-13T14:09:36.008Z,36.82
2017-12-13T14:10:46.017Z,36.74
2017-12-13T14:11:55.213Z,37.01
2017-12-13T14:13:04.183Z,37.01
2017-12-13T14:14:13.394Z,37.01
2017-12-13T14:15:22.333Z,36.82
2017-12-13T14:16:31.303Z,37.02
2017-12-13T14:17:41.043Z,36.72
2017-12-13T14:18:50.035Z,37.01
2017-12-13T14:19:59.009Z,37.02
2017-12-13T14:21:08.012Z,37.01
2017-12-13T14:22:16.952Z,37.01
2017-12-13T14:23:25.902Z,37.12
2017-12-13T14:24:35.463Z,36.72
2017-12-13T14:25:45.227Z,37.12
2017-12-13T14:26:54.982Z,37.02
2017-12-13T14:28:04.747Z,37.1
2017-12-13T14:29:14.251Z,37.01
2017-12-13T14:30:23.749Z,37.1
2017-12-13T14:31:33.270Z,37.02
2017-12-13T14:32:42.487Z,37.01
2017-12-13T14:33:51.975Z,36.82
2017-12-13T14:35:01.268Z,37.12
2017-12-13T14:36:10.490Z,37.01
2017-12-13T14:37:19.968Z,36.74
2017-12-13T14:38:28.647Z,37.02
2017-12-13T14:39:37.600Z,37.1
2017-12-13T14:40:47.105Z,36.91
2017-12-13T14:41:56.331Z,37.01
2017-12-13T14:43:05.540Z,36.91
2017-12-13T14:44:15.020Z,36.93
2017-12-13T14:45:24.241Z,37.1
2017-12-13T14:46:33.221Z,36.93
2017-12-13T14:47:41.901Z,36.83
2017-12-13T14:48:50.582Z,36.83
2017-12-13T14:49:59.570Z,37.12
2017-12-13T14:51:08.515Z,36.93
2017-12-13T14:52:18.000Z,37.12